createdAt,value
2022-09-03T00:02:10.712Z,1.85
2022-09-03T00:04:46.747Z,1.98
2022-09-03T00:07:21.408Z,3.25
2022-09-03T00:09:52.886Z,5.13
2022-09-03T00:14:57.273Z,3.50
2022-09-03T00:17:28.580Z,3.60
2022-09-03T00:22:34.732Z,2.50
2022-09-03T00:25:07.255Z,2.80
2022-09-03T00:27:40.383Z,1.60
2022-09-03T00:30:14.596Z,3.00
2022-09-03T00:32:48.250Z,4.35
2022-09-03T00:35:23.181Z,2.40
2022-09-03T00:37:52.781Z,2.10
2022-09-03T00:45:54.893Z,2.75
2022-09-03T00:48:28.354Z,8.20
2022-09-03T00:51:25.894Z,6.63
2022-09-03T00:56:41.788Z,2.55
2022-09-03T00:59:20.634Z,3.13
2022-09-03T01:01:59.192Z,1.95
2022-09-03T01:04:35.619Z,2.20
2022-09-03T01:12:35.176Z,1.85
2022-09-03T01:15:12.348Z,1.92
2022-09-03T01:18:01.988Z,5.57
2022-09-03T01:20:39.182Z,3.80
2022-09-03T01:23:37.074Z,2.25
2022-09-03T01:29:05.634Z,2.67
2022-09-03T01:31:40.275Z,3.85
2022-09-03T01:36:56.991Z,2.35
2022-09-03T01:39:34.368Z,2.28
2022-09-03T01:42:20.514Z,2.20
2022-09-03T01:47:51.440Z,1.98
2022-09-03T01:53:09.527Z,2.65
2022-09-03T01:58:22.721Z,2.30
2022-09-03T02:00:59.230Z,2.25
2022-09-03T02:03:36.484Z,1.63
2022-09-03T02:06:09.409Z,2.33
2022-09-03T02:11:08.077Z,2.17
2022-09-03T02:13:40.048Z,2.67
2022-09-03T02:16:15.257Z,1.77
2022-09-03T02:18:47.015Z,2.90
2022-09-03T02:21:17.893Z,1.73
2022-09-03T02:23:45.735Z,3.28
2022-09-03T02:26:17.627Z,1.92
2022-09-03T02:28:46.103Z,2.78
2022-09-03T02:31:15.335Z,1.77
2022-09-03T02:33:47.245Z,2.03
2022-09-03T02:36:18.003Z,9.32
2022-09-03T02:38:47.143Z,2.13
2022-09-03T02:43:47.120Z,1.88
2022-09-03T02:46:21.897Z,1.88
2022-09-03T02:48:49.858Z,2.33
2022-09-03T02:51:17.698Z,3.35
2022-09-03T02:56:13.991Z,5.28
2022-09-03T02:58:42.037Z,4.22
2022-09-03T03:01:09.913Z,2.53
2022-09-03T03:03:39.092Z,2.80
2022-09-03T03:06:07.863Z,3.42
2022-09-03T03:08:35.732Z,1.80
2022-09-03T03:11:03.669Z,3.00
2022-09-03T03:13:32.776Z,1.77
2022-09-03T03:16:01.527Z,4.82
2022-09-03T03:23:33.625Z,3.03
2022-09-03T03:26:02.766Z,2.83
2022-09-03T03:28:34.078Z,2.03
2022-09-03T03:31:07.037Z,5.32
2022-09-03T03:33:36.442Z,2.08
2022-09-03T03:36:10.733Z,3.53
2022-09-03T03:41:11.529Z,2.83
2022-09-03T03:43:39.391Z,3.67
2022-09-03T03:46:07.705Z,2.83
2022-09-03T03:48:35.700Z,2.15
2022-09-03T03:51:06.804Z,2.58
2022-09-03T03:56:07.455Z,2.65
2022-09-03T03:58:35.900Z,2.00
2022-09-03T04:01:07.939Z,1.60
2022-09-03T04:03:36.743Z,2.13
2022-09-03T04:06:05.847Z,1.67
2022-09-03T04:08:37.824Z,2.25
2022-09-03T04:11:07.518Z,3.60
2022-09-03T04:13:37.597Z,1.70
2022-09-03T04:16:08.071Z,2.95
2022-09-03T04:18:36.692Z,2.53
2022-09-03T04:21:07.335Z,4.53
2022-09-03T04:23:38.154Z,1.80
2022-09-03T04:26:06.498Z,3.70
2022-09-03T04:31:03.623Z,2.58
2022-09-03T04:33:31.937Z,2.38
2022-09-03T04:36:06.491Z,2.38
2022-09-03T04:38:36.724Z,8.05
2022-09-03T04:41:05.123Z,2.03
2022-09-03T04:43:33.786Z,2.13
2022-09-03T04:46:02.965Z,2.55
2022-09-03T04:48:32.641Z,2.00
2022-09-03T04:51:05.400Z,2.78
2022-09-03T04:53:34.322Z,2.35
2022-09-03T04:56:04.526Z,1.80
2022-09-03T04:58:32.512Z,2.40
2022-09-03T05:01:09.315Z,2.83
2022-09-03T05:03:38.569Z,3.15
2022-09-03T05:06:07.985Z,1.85
2022-09-03T05:08:36.859Z,3.55
2022-09-03T05:11:07.619Z,4.30
2022-09-03T05:13:37.069Z,5.50
2022-09-03T05:16:06.588Z,3.88
2022-09-03T05:18:35.795Z,2.47
2022-09-03T05:21:05.479Z,2.95
2022-09-03T05:26:10.984Z,2.38
2022-09-03T05:28:40.642Z,2.90
2022-09-03T05:31:10.422Z,1.88
2022-09-03T05:33:40.165Z,2.70
2022-09-03T05:36:10.415Z,3.15
2022-09-03T05:38:38.458Z,3.13
2022-09-03T05:41:09.698Z,2.17
2022-09-03T05:43:38.310Z,3.03
2022-09-03T05:46:07.768Z,2.15
2022-09-03T05:48:37.671Z,1.98
2022-09-03T05:51:08.566Z,2.00
2022-09-03T05:53:38.659Z,3.92
2022-09-03T05:56:10.899Z,1.67
2022-09-03T05:58:41.389Z,2.30
2022-09-03T06:01:14.387Z,4.38
2022-09-03T06:03:43.384Z,4.60
2022-09-03T06:08:42.445Z,2.63
2022-09-03T06:11:12.690Z,2.42
2022-09-03T06:13:40.566Z,6.40
2022-09-03T06:16:09.211Z,3.72
2022-09-03T06:18:37.276Z,1.58
2022-09-03T06:21:07.478Z,4.85
2022-09-03T06:23:36.482Z,2.92
2022-09-03T06:26:06.159Z,2.05
2022-09-03T06:28:37.882Z,1.80
2022-09-03T06:31:07.722Z,2.22
2022-09-03T06:33:38.125Z,2.38
2022-09-03T06:36:09.013Z,4.47
2022-09-03T06:38:38.820Z,3.63
2022-09-03T06:41:08.530Z,1.83
2022-09-03T06:43:39.800Z,2.00
2022-09-03T06:46:09.468Z,6.93
2022-09-03T06:48:38.743Z,2.78
2022-09-03T06:51:09.063Z,4.82
2022-09-03T06:56:07.984Z,5.55
2022-09-03T06:58:38.839Z,2.20
2022-09-03T07:01:08.463Z,2.53
2022-09-03T07:03:37.099Z,4.35
2022-09-03T07:06:06.916Z,2.40
2022-09-03T07:11:09.022Z,2.20
2022-09-03T07:16:10.124Z,3.50
2022-09-03T07:18:38.626Z,5.90
2022-09-03T07:21:08.861Z,2.20
2022-09-03T07:23:38.751Z,4.88
2022-09-03T07:26:08.493Z,2.58
2022-09-03T07:28:39.603Z,4.97
2022-09-03T07:31:10.708Z,1.75
2022-09-03T07:33:39.300Z,1.95
2022-09-03T07:36:10.631Z,1.75
2022-09-03T07:38:38.820Z,4.63
2022-09-03T07:41:08.447Z,2.55
2022-09-03T07:43:40.527Z,2.03
2022-09-03T07:46:08.581Z,1.70
2022-09-03T07:51:05.760Z,2.63
2022-09-03T07:56:07.654Z,2.45
2022-09-03T07:58:36.665Z,2.28
2022-09-03T08:01:11.165Z,3.70
2022-09-03T08:03:41.401Z,2.05
2022-09-03T08:06:11.780Z,3.97
2022-09-03T08:08:40.444Z,2.35
2022-09-03T08:11:11.061Z,1.60
2022-09-03T08:16:10.790Z,1.73
2022-09-03T08:18:40.788Z,1.70
2022-09-03T08:21:10.634Z,3.75
2022-09-03T08:23:39.244Z,4.30
2022-09-03T08:26:07.771Z,2.35
2022-09-03T08:28:36.396Z,8.82
2022-09-03T08:31:10.161Z,1.90
2022-09-03T08:33:39.573Z,2.30
2022-09-03T08:36:10.209Z,1.98
2022-09-03T08:38:38.276Z,2.10
2022-09-03T08:41:08.606Z,2.50
2022-09-03T08:43:50.503Z,1.60
2022-09-03T08:46:18.440Z,4.22
2022-09-03T08:48:48.775Z,1.77
2022-09-03T08:51:18.805Z,4.03
2022-09-03T08:53:50.554Z,1.70
2022-09-03T08:56:25.732Z,4.63
2022-09-03T08:58:53.595Z,2.78
2022-09-03T09:01:32.958Z,2.35
2022-09-03T09:04:11.965Z,2.92
2022-09-03T09:06:47.319Z,2.47
2022-09-03T09:09:28.401Z,2.85
2022-09-03T09:12:11.414Z,1.77
2022-09-03T09:14:52.039Z,2.90
2022-09-03T09:17:34.349Z,2.08
2022-09-03T09:20:10.934Z,3.83
2022-09-03T09:22:42.557Z,3.42
2022-09-03T09:25:20.501Z,3.78
2022-09-03T09:27:53.165Z,2.03
2022-09-03T09:30:21.094Z,1.92
2022-09-03T09:32:48.887Z,2.20
2022-09-03T09:35:19.398Z,3.30
2022-09-03T09:40:31.303Z,2.75
2022-09-03T09:43:11.079Z,2.13
2022-09-03T09:45:41.419Z,3.60
2022-09-03T09:48:21.236Z,2.30
2022-09-03T09:50:50.589Z,2.60
2022-09-03T09:53:21.791Z,2.72
2022-09-03T09:55:52.118Z,2.28
2022-09-03T09:58:22.274Z,3.70
2022-09-03T10:00:59.774Z,1.80
2022-09-03T10:03:29.985Z,2.33
2022-09-03T10:06:26.031Z,2.55
2022-09-03T10:08:55.487Z,2.25
2022-09-03T10:11:27.557Z,3.03
2022-09-03T10:13:56.915Z,3.15
2022-09-03T10:16:28.599Z,2.00
2022-09-03T10:19:06.374Z,2.33
2022-09-03T10:21:42.813Z,3.72
2022-09-03T10:24:32.217Z,4.35
2022-09-03T10:27:00.038Z,4.00
2022-09-03T10:29:30.341Z,1.98
2022-09-03T10:32:12.333Z,2.13
2022-09-03T10:34:49.659Z,2.92
2022-09-03T10:37:27.279Z,2.78
2022-09-03T10:40:17.913Z,2.95
2022-09-03T10:42:55.657Z,4.63
2022-09-03T10:45:35.205Z,2.08
2022-09-03T10:48:25.781Z,6.90
2022-09-03T10:50:57.184Z,2.35
2022-09-03T10:56:14.740Z,4.57
2022-09-03T10:58:56.050Z,2.35
2022-09-03T11:01:31.686Z,3.25
2022-09-03T11:04:16.648Z,4.90
2022-09-03T11:06:53.088Z,3.50
2022-09-03T11:09:29.155Z,3.33
2022-09-03T11:12:00.820Z,5.05
2022-09-03T11:14:37.520Z,4.18
2022-09-03T11:17:11.761Z,4.97
2022-09-03T11:19:51.136Z,3.40
2022-09-03T11:22:20.902Z,3.35
2022-09-03T11:24:54.813Z,3.90
2022-09-03T11:27:33.780Z,2.75
2022-09-03T11:30:07.142Z,2.28
2022-09-03T11:32:49.849Z,3.25
2022-09-03T11:35:31.445Z,3.85
2022-09-03T11:38:01.709Z,4.03
2022-09-03T11:40:39.191Z,2.13
2022-09-03T11:43:11.552Z,2.78
2022-09-03T11:45:40.562Z,5.70
2022-09-03T11:48:38.937Z,2.47
2022-09-03T11:51:19.708Z,3.47
2022-09-03T11:53:56.657Z,3.35
2022-09-03T11:56:26.648Z,3.10
2022-09-03T11:59:19.724Z,4.50
2022-09-03T12:01:53.347Z,2.42
2022-09-03T12:04:25.794Z,1.98
2022-09-03T12:07:13.561Z,2.47
2022-09-03T12:10:13.239Z,3.10
2022-09-03T12:12:58.314Z,2.83
2022-09-03T12:15:42.144Z,2.97
2022-09-03T12:18:22.748Z,3.65
2022-09-03T12:21:02.745Z,3.55
2022-09-03T12:23:33.452Z,2.47
2022-09-03T12:26:05.840Z,4.40
2022-09-03T12:28:38.122Z,4.53
2022-09-03T12:31:21.140Z,4.22
2022-09-03T12:33:51.473Z,2.97
2022-09-03T12:36:19.346Z,2.50
2022-09-03T12:39:10.446Z,2.80
2022-09-03T12:41:35.915Z,3.88
2022-09-03T12:44:05.765Z,2.55
2022-09-03T12:46:35.082Z,2.40
2022-09-03T12:52:04.617Z,3.70
2022-09-03T12:54:34.046Z,3.88
2022-09-03T12:57:02.516Z,5.97
2022-09-03T12:59:36.738Z,3.38
2022-09-03T13:02:14.550Z,4.63
2022-09-03T13:04:43.897Z,5.05
2022-09-03T13:07:22.546Z,3.28
2022-09-03T13:09:51.163Z,3.83
2022-09-03T13:12:24.514Z,2.35
2022-09-03T13:14:53.859Z,2.83
2022-09-03T13:20:24.739Z,1.92
2022-09-03T13:23:11.946Z,2.33
2022-09-03T13:25:53.049Z,3.65
2022-09-03T13:28:35.625Z,5.75
2022-09-03T13:31:12.278Z,3.53
2022-09-03T13:33:44.633Z,2.20
2022-09-03T13:36:18.944Z,3.08
2022-09-03T13:38:52.937Z,9.63
2022-09-03T13:41:36.517Z,4.00
2022-09-03T13:44:09.298Z,4.00
2022-09-03T13:46:46.468Z,2.70
2022-09-03T13:49:46.461Z,2.70
2022-09-03T13:52:22.484Z,2.88
2022-09-03T13:54:57.351Z,2.38
2022-09-03T13:57:35.106Z,2.78
2022-09-03T14:00:07.389Z,3.80
2022-09-03T14:02:47.938Z,3.55
2022-09-03T14:05:25.082Z,3.50
2022-09-03T14:08:08.967Z,2.80
2022-09-03T14:10:56.998Z,3.50
2022-09-03T14:13:33.293Z,2.72
2022-09-03T14:16:08.350Z,2.53
2022-09-03T14:18:51.534Z,2.97
2022-09-03T14:21:24.740Z,2.47
2022-09-03T14:24:01.332Z,2.78
2022-09-03T14:26:39.249Z,2.50
2022-09-03T14:29:16.916Z,3.50
2022-09-03T14:35:01.342Z,3.53
2022-09-03T14:40:35.521Z,3.05
2022-09-03T14:46:05.739Z,2.65
2022-09-03T14:48:50.067Z,2.95
2022-09-03T14:51:33.019Z,5.68
2022-09-03T14:57:12.716Z,3.20
2022-09-03T15:00:06.362Z,3.42
2022-09-03T15:09:12.174Z,2.75
2022-09-03T15:14:25.406Z,3.97
2022-09-03T15:17:00.939Z,5.18
2022-09-03T15:22:35.772Z,4.00
2022-09-03T15:28:00.284Z,2.95
2022-09-03T15:33:17.278Z,2.40
2022-09-03T15:36:01.427Z,2.35
2022-09-03T15:38:41.354Z,3.03
2022-09-03T15:41:18.727Z,5.07
2022-09-03T15:49:18.410Z,2.22
2022-09-03T15:54:57.873Z,4.68
2022-09-03T15:57:33.925Z,2.88
2022-09-03T16:00:07.470Z,2.42
2022-09-03T16:02:43.576Z,2.78
2022-09-03T16:05:18.276Z,4.30
2022-09-03T16:16:26.299Z,2.42
2022-09-03T16:19:02.777Z,3.45
2022-09-03T16:21:38.768Z,3.65
2022-09-03T16:24:14.200Z,2.08
2022-09-03T16:26:49.320Z,2.95
2022-09-03T16:29:20.239Z,4.78
2022-09-03T16:32:02.596Z,2.72
2022-09-03T16:34:40.879Z,6.82
2022-09-03T16:37:19.337Z,2.50
2022-09-03T16:42:32.368Z,3.65
2022-09-03T16:45:13.158Z,2.85
2022-09-03T16:47:59.385Z,2.28
2022-09-03T16:50:41.764Z,3.28
2022-09-03T16:53:15.755Z,2.45
2022-09-03T16:56:19.412Z,4.05
2022-09-03T16:59:00.619Z,4.72
2022-09-03T17:01:52.369Z,2.30
2022-09-03T17:04:47.185Z,2.55
2022-09-03T17:07:27.916Z,3.67
2022-09-03T17:10:04.286Z,4.57
2022-09-03T17:12:39.537Z,2.60
2022-09-03T17:15:20.551Z,3.30
2022-09-03T17:18:04.419Z,3.10
2022-09-03T17:20:49.638Z,3.45
2022-09-03T17:23:40.831Z,2.55
2022-09-03T17:26:13.538Z,4.60
2022-09-03T17:28:56.237Z,3.70
2022-09-03T17:31:34.441Z,4.15
2022-09-03T17:34:11.135Z,2.00
2022-09-03T17:36:39.890Z,2.50
2022-09-03T17:39:40.712Z,3.60
2022-09-03T17:42:20.514Z,3.30
2022-09-03T17:45:01.232Z,4.75
2022-09-03T17:47:58.489Z,3.63
2022-09-03T17:50:33.111Z,2.53
2022-09-03T17:53:03.984Z,3.63
2022-09-03T17:55:36.366Z,2.08
2022-09-03T17:58:12.780Z,3.30
2022-09-03T18:00:47.246Z,4.03
2022-09-03T18:03:21.612Z,5.25
2022-09-03T18:06:01.109Z,4.78
2022-09-03T18:08:37.637Z,4.25
2022-09-03T18:11:12.389Z,3.05
2022-09-03T18:13:49.417Z,4.85
2022-09-03T18:16:25.189Z,6.32
2022-09-03T18:18:54.529Z,4.07
2022-09-03T18:21:45.072Z,5.25
2022-09-03T18:24:43.492Z,6.80
2022-09-03T18:27:33.550Z,3.42
2022-09-03T18:35:53.685Z,5.93
2022-09-03T18:38:44.161Z,9.48
2022-09-03T18:41:56.077Z,4.75
2022-09-03T18:45:11.924Z,4.35
2022-09-03T18:48:15.278Z,6.07
2022-09-03T18:51:10.159Z,6.47
2022-09-03T18:54:07.781Z,5.68
2022-09-03T18:56:58.783Z,7.93
2022-09-03T19:00:14.537Z,6.93
2022-09-03T19:03:11.386Z,6.47
2022-09-03T19:06:06.172Z,5.93
2022-09-03T19:08:59.895Z,12.88
2022-09-03T19:11:53.521Z,7.63
2022-09-03T19:14:53.533Z,9.60
2022-09-03T19:17:47.957Z,12.45
2022-09-03T19:20:40.473Z,7.93
2022-09-03T19:23:26.198Z,10.90
2022-09-03T19:26:19.615Z,7.53
2022-09-03T19:29:10.788Z,7.10
2022-09-03T19:32:04.387Z,11.02
2022-09-03T19:35:11.100Z,4.70
2022-09-03T19:38:06.383Z,6.75
2022-09-03T19:41:06.171Z,9.80
2022-09-03T19:44:04.170Z,6.55
2022-09-03T19:46:58.146Z,7.13
2022-09-03T19:49:57.331Z,7.07
2022-09-03T19:52:49.484Z,7.07
2022-09-03T19:55:40.695Z,6.72
2022-09-03T19:58:42.663Z,6.85
2022-09-03T20:01:31.815Z,6.35
2022-09-03T20:04:23.171Z,6.72
2022-09-03T20:07:08.900Z,6.05
2022-09-03T20:10:00.272Z,5.90
2022-09-03T20:15:04.606Z,6.00
2022-09-03T20:17:44.032Z,8.45
2022-09-03T20:20:18.735Z,11.90
2022-09-03T20:22:59.209Z,9.10
2022-09-03T20:25:50.938Z,8.38
2022-09-03T20:28:33.044Z,7.00
2022-09-03T20:31:07.252Z,6.25
2022-09-03T20:33:56.832Z,17.08
2022-09-03T20:36:35.086Z,8.02
2022-09-03T20:39:23.995Z,8.15
2022-09-03T20:41:59.301Z,6.38
2022-09-03T20:44:48.225Z,7.97
2022-09-03T20:47:45.130Z,6.45
2022-09-03T20:50:24.992Z,7.30
2022-09-03T20:53:05.646Z,8.75
2022-09-03T20:55:42.703Z,4.75
2022-09-03T20:58:16.499Z,6.55
2022-09-03T21:00:52.096Z,5.32
2022-09-03T21:03:22.931Z,5.63
2022-09-03T21:06:12.247Z,6.20
2022-09-03T21:08:57.412Z,6.72
2022-09-03T21:11:36.541Z,7.35
2022-09-03T21:14:18.546Z,7.70
2022-09-03T21:19:37.742Z,9.05
2022-09-03T21:22:18.301Z,9.77
2022-09-03T21:24:51.372Z,8.40
2022-09-03T21:27:24.240Z,8.85
2022-09-03T21:30:01.142Z,8.43
2022-09-03T21:32:39.897Z,7.53
2022-09-03T21:35:16.674Z,6.28
2022-09-03T21:37:53.502Z,8.07
2022-09-03T21:40:24.461Z,10.00
2022-09-03T21:43:00.452Z,5.35
2022-09-03T21:45:35.048Z,8.50
2022-09-03T21:48:10.011Z,5.95
2022-09-03T21:53:28.171Z,5.35
2022-09-03T21:56:22.806Z,6.43
2022-09-03T21:59:08.890Z,6.65
2022-09-03T22:01:49.557Z,5.57
2022-09-03T22:04:17.445Z,5.40
2022-09-03T22:06:53.711Z,6.38
2022-09-03T22:09:30.106Z,5.15
2022-09-03T22:12:04.000Z,5.60
2022-09-03T22:14:43.192Z,6.80
2022-09-03T22:17:16.873Z,10.38
2022-09-03T22:22:22.676Z,5.88
2022-09-03T22:24:58.865Z,5.93
2022-09-03T22:27:35.583Z,5.97
2022-09-03T22:30:07.994Z,7.22
2022-09-03T22:32:52.644Z,6.88
2022-09-03T22:35:34.990Z,7.13
2022-09-03T22:38:27.261Z,6.03
2022-09-03T22:43:39.231Z,9.18
2022-09-03T22:46:13.779Z,5.22
2022-09-03T22:48:55.531Z,5.65
2022-09-03T22:54:04.132Z,5.10
2022-09-03T22:56:37.837Z,5.15
2022-09-03T23:01:44.628Z,6.57
2022-09-03T23:04:18.288Z,6.85
2022-09-03T23:09:25.851Z,7.35
2022-09-03T23:12:00.861Z,9.13
2022-09-03T23:14:34.357Z,6.43
2022-09-03T23:17:09.766Z,7.32
2022-09-03T23:19:41.911Z,5.55
2022-09-03T23:22:13.572Z,7.35
2022-09-03T23:24:46.197Z,6.90
2022-09-03T23:27:19.522Z,7.85
2022-09-03T23:34:48.100Z,8.77
2022-09-03T23:40:30.947Z,8.07
2022-09-03T23:43:27.429Z,6.53
2022-09-03T23:48:44.631Z,6.30
2022-09-03T23:56:50.559Z,5.88
